createdAt,value
2018-05-15T00:01:26.436Z,15.26
2018-05-15T00:04:28.499Z,15.29
2018-05-15T00:07:30.660Z,15.33
2018-05-15T00:10:32.801Z,15.36
2018-05-15T00:13:34.903Z,15.35
2018-05-15T00:16:36.972Z,15.26
2018-05-15T00:19:39.128Z,15.33
2018-05-15T00:22:41.224Z,15.35
2018-05-15T00:25:43.286Z,15.36
2018-05-15T00:28:45.303Z,15.33
2018-05-15T00:31:47.409Z,15.38
2018-05-15T00:34:50.577Z,15.42
2018-05-15T00:37:52.737Z,15.43
2018-05-15T00:40:55.049Z,15.42
2018-05-15T00:43:57.170Z,15.37
2018-05-15T00:46:59.317Z,15.37
2018-05-15T00:50:01.476Z,15.48
2018-05-15T00:53:03.511Z,15.42
2018-05-15T00:56:05.604Z,15.42
2018-05-15T00:59:07.683Z,15.43
2018-05-15T01:02:09.774Z,15.40
2018-05-15T01:05:11.906Z,15.41
2018-05-15T01:08:13.981Z,15.28
2018-05-15T01:11:16.155Z,15.26
2018-05-15T01:14:18.213Z,15.27
2018-05-15T01:17:21.207Z,15.28
2018-05-15T01:20:23.371Z,15.29
2018-05-15T01:23:25.450Z,15.35
2018-05-15T01:26:27.514Z,15.37
2018-05-15T01:29:29.599Z,15.40
2018-05-15T01:32:31.682Z,15.44
2018-05-15T01:35:33.858Z,15.47
2018-05-15T01:38:35.900Z,15.48
2018-05-15T01:41:37.976Z,15.47
2018-05-15T01:44:40.130Z,15.44
2018-05-15T01:47:42.239Z,15.51
2018-05-15T01:50:44.387Z,15.55
2018-05-15T01:53:46.449Z,15.55
2018-05-15T01:56:48.595Z,15.55
2018-05-15T01:59:51.500Z,15.56
2018-05-15T02:02:53.564Z,15.58
2018-05-15T02:05:57.705Z,15.59
2018-05-15T02:08:59.735Z,15.59
2018-05-15T02:12:01.847Z,15.60
2018-05-15T02:15:03.976Z,15.60
2018-05-15T02:18:06.044Z,15.60
2018-05-15T02:21:08.255Z,15.62
2018-05-15T02:24:10.420Z,15.61
2018-05-15T02:27:12.492Z,15.58
2018-05-15T02:30:14.457Z,15.59
2018-05-15T02:33:16.496Z,15.57
2018-05-15T02:36:18.684Z,15.54
2018-05-15T02:39:21.407Z,15.48
2018-05-15T02:42:24.039Z,15.49
2018-05-15T02:45:26.025Z,15.44
2018-05-15T02:48:28.171Z,15.36
2018-05-15T02:51:30.262Z,15.22
2018-05-15T02:54:32.296Z,15.24
2018-05-15T02:57:34.385Z,15.24
2018-05-15T03:00:36.470Z,15.24
2018-05-15T03:03:38.615Z,15.24
2018-05-15T03:06:40.692Z,15.22
2018-05-15T03:09:42.861Z,15.18
2018-05-15T03:12:44.957Z,15.22
2018-05-15T03:15:48.141Z,15.16
2018-05-15T03:18:50.231Z,15.21
2018-05-15T03:21:59.153Z,15.17
2018-05-15T03:25:01.299Z,15.14
2018-05-15T03:28:03.832Z,15.14
2018-05-15T03:31:06.404Z,15.08
2018-05-15T03:34:08.851Z,14.99
2018-05-15T03:37:11.234Z,15.05
2018-05-15T03:40:14.402Z,14.90
2018-05-15T03:43:17.947Z,14.80
2018-05-15T03:46:20.584Z,14.86
2018-05-15T03:49:22.975Z,14.86
2018-05-15T03:52:25.126Z,14.86
2018-05-15T03:55:27.177Z,14.84
2018-05-15T03:58:29.287Z,14.77
2018-05-15T04:01:42.964Z,14.65
2018-05-15T04:05:56.181Z,14.59
2018-05-15T04:08:58.318Z,14.54
2018-05-15T04:12:00.359Z,14.60
2018-05-15T04:15:02.528Z,14.60
2018-05-15T04:18:04.684Z,14.61
2018-05-15T04:21:06.656Z,14.67
2018-05-15T04:24:09.823Z,14.71
2018-05-15T04:27:11.972Z,14.73
2018-05-15T04:30:14.072Z,14.60
2018-05-15T04:33:16.299Z,14.60
2018-05-15T04:36:18.363Z,14.72
2018-05-15T04:39:20.504Z,14.74
2018-05-15T04:42:23.669Z,14.75
2018-05-15T04:45:25.817Z,14.69
2018-05-15T04:48:27.903Z,14.73
2018-05-15T04:51:29.895Z,14.82
2018-05-15T04:54:32.009Z,14.94
2018-05-15T04:57:34.059Z,14.98
2018-05-15T05:00:36.192Z,14.86
2018-05-15T05:03:38.285Z,14.80
2018-05-15T05:06:40.394Z,14.83
2018-05-15T05:09:46.350Z,14.89
2018-05-15T05:12:49.863Z,14.93
2018-05-15T05:15:53.099Z,15.02
2018-05-15T05:18:55.622Z,14.99
2018-05-15T05:21:58.124Z,14.93
2018-05-15T05:25:00.620Z,14.94
2018-05-15T05:28:03.090Z,15.00
2018-05-15T05:31:05.139Z,14.92
2018-05-15T05:34:13.159Z,14.95
2018-05-15T05:37:15.718Z,15.02
2018-05-15T05:40:18.653Z,14.97
2018-05-15T05:43:20.747Z,15.01
2018-05-15T05:46:23.382Z,15.06
2018-05-15T05:49:25.837Z,15.00
2018-05-15T05:52:28.268Z,14.89
2018-05-15T05:55:30.813Z,14.86
2018-05-15T05:58:33.299Z,14.85
2018-05-15T06:01:35.255Z,14.92
2018-05-15T06:04:37.286Z,15.08
2018-05-15T06:07:39.882Z,15.11
2018-05-15T06:10:42.392Z,15.18
2018-05-15T06:13:44.963Z,15.19
2018-05-15T06:16:47.468Z,15.08
2018-05-15T06:19:50.940Z,15.11
2018-05-15T06:22:53.438Z,15.15
2018-05-15T06:25:55.987Z,15.11
2018-05-15T06:28:59.499Z,15.02
2018-05-15T06:32:02.068Z,14.97
2018-05-15T06:35:04.487Z,15.00
2018-05-15T06:38:08.064Z,15.04
2018-05-15T06:41:10.593Z,15.04
2018-05-15T06:44:12.615Z,15.04
2018-05-15T06:47:15.107Z,15.02
2018-05-15T06:50:17.171Z,15.02
2018-05-15T06:53:19.659Z,15.07
2018-05-15T06:56:22.214Z,15.05
2018-05-15T06:59:24.563Z,15.04
2018-05-15T07:02:27.070Z,15.11
2018-05-15T07:05:29.241Z,15.04
2018-05-15T07:08:31.719Z,15.04
2018-05-15T07:11:34.294Z,15.03
2018-05-15T07:14:36.819Z,15.00
2018-05-15T07:17:39.335Z,15.05
2018-05-15T07:20:41.853Z,15.19
2018-05-15T07:23:44.429Z,15.31
2018-05-15T07:26:46.821Z,15.35
2018-05-15T07:29:50.320Z,15.44
2018-05-15T07:32:52.444Z,15.62
2018-05-15T07:35:54.907Z,15.78
2018-05-15T07:38:57.456Z,15.83
2018-05-15T07:41:59.459Z,15.85
2018-05-15T07:45:01.972Z,16.05
2018-05-15T07:48:04.508Z,16.23
2018-05-15T07:51:06.944Z,16.31
2018-05-15T07:54:09.065Z,16.46
2018-05-15T07:57:11.067Z,16.47
2018-05-15T08:00:13.587Z,16.46
2018-05-15T08:03:15.601Z,16.49
2018-05-15T08:06:18.113Z,16.70
2018-05-15T08:09:22.051Z,16.81
2018-05-15T08:12:24.113Z,16.92
2018-05-15T08:15:27.068Z,16.90
2018-05-15T08:18:29.736Z,16.92
2018-05-15T08:21:32.179Z,16.99
2018-05-15T08:24:34.724Z,17.10
2018-05-15T08:27:36.783Z,17.16
2018-05-15T08:30:39.255Z,17.28
2018-05-15T08:33:41.288Z,17.28
2018-05-15T08:36:43.835Z,17.59
2018-05-15T08:39:45.857Z,17.91
2018-05-15T08:42:48.384Z,17.73
2018-05-15T08:45:51.160Z,17.86
2018-05-15T08:48:54.415Z,17.99
2018-05-15T08:51:56.929Z,18.09
2018-05-15T08:54:59.521Z,18.21
2018-05-15T08:58:01.959Z,18.15
2018-05-15T09:01:03.992Z,18.33
2018-05-15T09:04:06.195Z,18.37
2018-05-15T09:07:08.356Z,18.49
2018-05-15T09:10:10.591Z,18.43
2018-05-15T09:13:12.780Z,18.76
2018-05-15T09:16:14.946Z,18.81
2018-05-15T09:19:17.119Z,19.02
2018-05-15T09:22:20.297Z,19.20
2018-05-15T09:25:22.474Z,19.08
2018-05-15T09:28:24.652Z,19.07
2018-05-15T09:31:26.656Z,19.06
2018-05-15T09:34:29.781Z,19.28
2018-05-15T09:37:31.850Z,19.43
2018-05-15T09:40:34.063Z,19.39
2018-05-15T09:43:45.246Z,19.51
2018-05-15T09:46:47.361Z,19.47
2018-05-15T09:49:50.911Z,19.64
2018-05-15T09:52:52.968Z,19.87
2018-05-15T09:55:55.001Z,19.79
2018-05-15T09:58:57.307Z,19.72
2018-05-15T10:01:59.597Z,19.79
2018-05-15T10:05:01.593Z,19.67
2018-05-15T10:08:03.798Z,19.52
2018-05-15T10:11:05.839Z,19.58
2018-05-15T10:14:07.884Z,19.63
2018-05-15T10:17:10.017Z,19.81
2018-05-15T10:20:12.164Z,20.05
2018-05-15T10:23:14.254Z,20.45
2018-05-15T10:26:16.438Z,20.60
2018-05-15T10:29:18.536Z,20.45
2018-05-15T10:32:20.754Z,20.44
2018-05-15T10:35:22.803Z,20.62
2018-05-15T10:38:24.804Z,20.60
2018-05-15T10:41:26.879Z,20.95
2018-05-15T10:44:28.959Z,21.08
2018-05-15T10:47:31.096Z,20.87
2018-05-15T10:50:33.149Z,20.76
2018-05-15T10:53:36.303Z,20.70
2018-05-15T10:56:38.396Z,20.57
2018-05-15T10:59:40.547Z,20.50
2018-05-15T11:02:42.449Z,20.81
2018-05-15T11:05:44.638Z,21.15
2018-05-15T11:08:47.091Z,21.40
2018-05-15T11:11:49.008Z,21.55
2018-05-15T11:14:51.997Z,21.53
2018-05-15T11:17:54.195Z,21.39
2018-05-15T11:21:07.845Z,21.31
2018-05-15T11:24:21.911Z,21.71
2018-05-15T11:27:23.953Z,22.08
2018-05-15T11:33:27.510Z,22.34
2018-05-15T11:36:29.603Z,22.21
2018-05-15T11:39:31.810Z,22.18
2018-05-15T11:42:33.811Z,22.37
2018-05-15T11:45:35.887Z,22.54
2018-05-15T11:48:38.422Z,22.70
2018-05-15T11:51:40.559Z,22.55
2018-05-15T11:54:41.995Z,22.57
2018-05-15T11:57:45.127Z,22.43
2018-05-15T12:00:47.266Z,22.34
2018-05-15T12:03:49.412Z,22.35
2018-05-15T12:06:51.485Z,22.72
2018-05-15T12:09:53.559Z,22.73
2018-05-15T12:12:55.903Z,23.06
2018-05-15T12:15:57.913Z,23.26
2018-05-15T12:18:59.987Z,23.48
2018-05-15T12:22:02.054Z,23.61
2018-05-15T12:25:04.101Z,23.70
2018-05-15T12:28:06.285Z,23.64
2018-05-15T12:31:08.238Z,23.52
2018-05-15T12:34:10.306Z,23.21
2018-05-15T12:37:12.488Z,23.10
2018-05-15T12:40:14.595Z,23.16
2018-05-15T12:43:16.750Z,23.25
2018-05-15T12:46:18.894Z,23.01
2018-05-15T12:49:20.948Z,22.88
2018-05-15T12:52:23.040Z,22.72
2018-05-15T12:55:25.279Z,22.49
2018-05-15T12:58:28.019Z,22.41
2018-05-15T13:01:30.038Z,22.38
2018-05-15T13:04:32.128Z,22.40
2018-05-15T13:07:34.215Z,22.35
2018-05-15T13:10:37.129Z,22.30
2018-05-15T13:13:39.291Z,22.31
2018-05-15T13:16:41.416Z,22.24
2018-05-15T13:19:43.484Z,22.23
2018-05-15T13:22:45.567Z,22.32
2018-05-15T13:25:47.713Z,22.70
2018-05-15T13:28:49.887Z,22.97
2018-05-15T13:31:52.054Z,23.05
2018-05-15T13:34:54.252Z,22.98
2018-05-15T13:37:57.036Z,23.03
2018-05-15T13:40:59.210Z,23.12
2018-05-15T13:44:01.584Z,23.36
2018-05-15T13:47:03.766Z,23.50
2018-05-15T13:50:05.918Z,23.38
2018-05-15T13:53:08.109Z,23.36
2018-05-15T13:56:10.211Z,23.11
2018-05-15T13:59:12.428Z,23.01
2018-05-15T14:02:14.376Z,22.97
2018-05-15T14:05:18.495Z,22.97
2018-05-15T14:08:20.559Z,22.93
2018-05-15T14:11:23.655Z,22.74
2018-05-15T14:14:25.742Z,22.65
2018-05-15T14:17:27.925Z,22.65
2018-05-15T14:20:29.984Z,22.49
2018-05-15T14:23:32.168Z,22.27
2018-05-15T14:26:34.243Z,22.22
2018-05-15T14:29:36.372Z,22.14
2018-05-15T14:32:38.561Z,22.17
2018-05-15T14:35:41.788Z,22.39
2018-05-15T14:38:43.841Z,22.84
2018-05-15T14:41:55.415Z,23.33
2018-05-15T14:44:59.536Z,23.67
2018-05-15T14:48:01.671Z,23.64
2018-05-15T14:51:26.788Z,23.36
2018-05-15T14:54:28.876Z,23.10
2018-05-15T14:57:31.156Z,22.88
2018-05-15T15:00:34.356Z,22.78
2018-05-15T15:03:36.453Z,22.69
2018-05-15T15:06:38.605Z,22.60
2018-05-15T15:09:40.663Z,22.50
2018-05-15T15:12:42.730Z,22.38
2018-05-15T15:15:44.804Z,22.35
2018-05-15T15:18:47.910Z,22.22
2018-05-15T15:21:50.084Z,22.09
2018-05-15T15:24:52.310Z,22.07
2018-05-15T15:27:54.457Z,21.61
2018-05-15T15:30:56.580Z,20.93
2018-05-15T15:33:58.647Z,20.49
2018-05-15T15:37:00.824Z,20.13
2018-05-15T15:40:03.113Z,19.95
2018-05-15T15:43:05.055Z,20.10
2018-05-15T15:46:07.144Z,20.11
2018-05-15T15:49:09.372Z,20.16
2018-05-15T15:52:11.708Z,20.05
2018-05-15T15:55:13.728Z,19.75
2018-05-15T15:58:15.747Z,18.86
2018-05-15T16:01:19.239Z,17.80
2018-05-15T16:04:21.251Z,16.88
2018-05-15T16:07:23.373Z,16.52
2018-05-15T16:10:25.409Z,16.43
2018-05-15T16:13:27.591Z,16.48
2018-05-15T16:16:29.642Z,16.41
2018-05-15T16:19:31.700Z,16.63
2018-05-15T16:22:33.786Z,16.87
2018-05-15T16:25:35.849Z,17.13
2018-05-15T16:28:38.001Z,17.28
2018-05-15T16:31:40.078Z,17.39
2018-05-15T16:34:42.143Z,17.64
2018-05-15T16:37:44.333Z,18.03
2018-05-15T16:40:46.353Z,18.23
2018-05-15T16:43:49.439Z,18.12
2018-05-15T16:46:51.980Z,17.76
2018-05-15T16:49:54.200Z,17.55
2018-05-15T16:52:56.286Z,17.56
2018-05-15T16:55:58.411Z,17.70
2018-05-15T16:59:00.451Z,17.88
2018-05-15T17:02:02.533Z,17.95
2018-05-15T17:05:04.576Z,18.17
2018-05-15T17:08:06.726Z,18.41
2018-05-15T17:11:08.859Z,18.57
2018-05-15T17:14:12.960Z,18.69
2018-05-15T17:17:16.192Z,18.75
2018-05-15T17:20:19.030Z,18.68
2018-05-15T17:23:21.095Z,18.69
2018-05-15T17:26:23.248Z,18.83
2018-05-15T17:29:32.832Z,18.87
2018-05-15T17:32:35.011Z,18.53
2018-05-15T17:35:37.151Z,18.36
2018-05-15T17:38:41.180Z,18.22
2018-05-15T17:41:43.194Z,18.20
2018-05-15T17:44:45.397Z,18.10
2018-05-15T17:47:47.632Z,17.77
2018-05-15T17:50:50.532Z,17.38
2018-05-15T17:53:52.639Z,17.26
2018-05-15T17:56:54.881Z,17.08
2018-05-15T17:59:57.120Z,17.16
2018-05-15T18:02:59.148Z,17.13
2018-05-15T18:06:01.229Z,17.14
2018-05-15T18:09:03.800Z,17.19
2018-05-15T18:12:05.876Z,17.30
2018-05-15T18:15:08.091Z,17.38
2018-05-15T18:18:16.580Z,17.56
2018-05-15T18:21:18.761Z,17.67
2018-05-15T18:24:20.824Z,17.69
2018-05-15T18:27:22.920Z,17.58
2018-05-15T18:30:24.903Z,17.57
2018-05-15T18:33:28.208Z,17.66
2018-05-15T18:36:30.304Z,17.74
2018-05-15T18:39:32.469Z,17.76
2018-05-15T18:42:34.607Z,17.78
2018-05-15T18:45:36.714Z,17.72
2018-05-15T18:48:38.784Z,17.67
2018-05-15T18:51:40.882Z,17.67
2018-05-15T18:54:43.007Z,17.61
2018-05-15T18:57:45.272Z,17.51
2018-05-15T19:00:47.569Z,17.47
2018-05-15T19:03:49.549Z,17.41
2018-05-15T19:06:51.754Z,17.42
2018-05-15T19:09:53.807Z,17.46
2018-05-15T19:12:55.929Z,17.43
2018-05-15T19:15:57.998Z,17.41
2018-05-15T19:19:00.130Z,17.47
2018-05-15T19:22:02.292Z,17.53
2018-05-15T19:25:04.474Z,17.56
2018-05-15T19:28:06.607Z,17.61
2018-05-15T19:31:13.555Z,17.54
2018-05-15T19:34:20.281Z,17.43
2018-05-15T19:37:22.448Z,17.01
2018-05-15T19:40:25.010Z,16.86
2018-05-15T19:43:27.155Z,16.90
2018-05-15T19:46:29.251Z,16.89
2018-05-15T19:49:31.803Z,16.74
2018-05-15T19:52:33.896Z,16.65
2018-05-15T19:55:35.938Z,16.66
2018-05-15T19:58:38.092Z,16.69
2018-05-15T20:01:40.314Z,16.72
2018-05-15T20:04:45.947Z,16.87
2018-05-15T20:07:48.048Z,16.86
2018-05-15T20:10:50.170Z,16.90
2018-05-15T20:13:52.253Z,16.95
2018-05-15T20:16:54.352Z,16.99
2018-05-15T20:19:56.417Z,16.98
2018-05-15T20:22:58.615Z,16.91
2018-05-15T20:26:00.716Z,16.85
2018-05-15T20:29:02.759Z,16.70
2018-05-15T20:32:04.903Z,16.58
2018-05-15T20:35:07.037Z,16.55
2018-05-15T20:38:09.116Z,16.56
2018-05-15T20:41:11.191Z,16.50
2018-05-15T20:44:13.223Z,16.38
2018-05-15T20:47:15.315Z,16.22
2018-05-15T20:50:17.392Z,16.35
2018-05-15T20:53:20.445Z,16.39
2018-05-15T20:56:22.564Z,16.46
2018-05-15T20:59:24.607Z,16.36
2018-05-15T21:02:26.571Z,16.29
2018-05-15T21:05:28.783Z,16.34
2018-05-15T21:08:30.828Z,16.38
2018-05-15T21:11:33.511Z,16.39
2018-05-15T21:14:35.691Z,16.37
2018-05-15T21:17:37.763Z,16.37
2018-05-15T21:20:41.517Z,16.31
2018-05-15T21:23:43.644Z,16.32
2018-05-15T21:26:45.711Z,16.21
2018-05-15T21:29:47.990Z,16.05
2018-05-15T21:32:50.239Z,15.91
2018-05-15T21:35:52.315Z,15.76
2018-05-15T21:38:54.407Z,15.65
2018-05-15T21:41:56.632Z,15.55
2018-05-15T21:44:58.740Z,15.53
2018-05-15T21:48:00.816Z,15.51
2018-05-15T21:51:02.991Z,15.59
2018-05-15T21:54:04.959Z,15.68
2018-05-15T21:57:06.999Z,15.80
2018-05-15T22:00:09.224Z,15.87
2018-05-15T22:03:12.451Z,15.97
2018-05-15T22:06:14.538Z,16.02
2018-05-15T22:09:16.725Z,16.07
2018-05-15T22:12:30.274Z,16.04
2018-05-15T22:15:43.936Z,16.03
2018-05-15T22:18:57.556Z,16.08
2018-05-15T22:22:12.216Z,16.11
2018-05-15T22:25:14.192Z,16.13
2018-05-15T22:28:16.188Z,16.19
2018-05-15T22:31:18.297Z,16.17
2018-05-15T22:34:20.372Z,16.18
2018-05-15T22:37:22.525Z,16.09
2018-05-15T22:40:24.592Z,15.97
2018-05-15T22:43:26.697Z,15.90
2018-05-15T22:46:28.959Z,15.86
2018-05-15T22:49:31.131Z,15.63
2018-05-15T22:52:33.203Z,15.66
2018-05-15T22:55:36.321Z,15.71
2018-05-15T22:58:38.369Z,15.80
2018-05-15T23:01:42.246Z,15.83
2018-05-15T23:04:44.419Z,15.81
2018-05-15T23:07:46.479Z,15.85
2018-05-15T23:10:48.556Z,15.86
2018-05-15T23:13:50.604Z,15.90
2018-05-15T23:16:53.692Z,15.89
2018-05-15T23:19:55.750Z,15.86
2018-05-15T23:22:59.837Z,15.79
2018-05-15T23:26:01.847Z,15.77
2018-05-15T23:29:03.904Z,15.77
2018-05-15T23:32:05.879Z,15.74
2018-05-15T23:35:07.992Z,15.74
2018-05-15T23:38:10.012Z,15.73
2018-05-15T23:41:12.789Z,15.70
2018-05-15T23:44:14.886Z,15.73
2018-05-15T23:47:17.011Z,15.76
2018-05-15T23:50:19.107Z,15.79
2018-05-15T23:53:21.165Z,15.74
2018-05-15T23:56:23.144Z,15.75
2018-05-15T23:59:25.114Z,15.73
